sensor_id;sensor_type;location;lat;lon;timestamp;pressure;altitude;pressure_sealevel;temperature;humidity
62864;BME280;48954;59.950;11.014;2023-10-19T00:01:16;100149.88;;;-1.55;73.31
62864;BME280;48954;59.950;11.014;2023-10-19T00:03:43;100144.61;;;-1.56;73.55
62864;BME280;48954;59.950;11.014;2023-10-19T00:06:17;100150.27;;;-1.57;73.53
62864;BME280;48954;59.950;11.014;2023-10-19T00:08:44;100151.94;;;-1.60;73.76
62864;BME280;48954;59.950;11.014;2023-10-19T00:11:11;100152.38;;;-1.60;73.82
62864;BME280;48954;59.950;11.014;2023-10-19T00:13:39;100159.16;;;-1.63;73.43
62864;BME280;48954;59.950;11.014;2023-10-19T00:16:11;100157.64;;;-1.66;73.61
62864;BME280;48954;59.950;11.014;2023-10-19T00:18:37;100158.63;;;-1.68;73.45
62864;BME280;48954;59.950;11.014;2023-10-19T00:21:06;100155.27;;;-1.73;73.60
62864;BME280;48954;59.950;11.014;2023-10-19T00:23:33;100159.86;;;-1.73;73.56
62864;BME280;48954;59.950;11.014;2023-10-19T00:26:01;100163.36;;;-1.75;73.75
62864;BME280;48954;59.950;11.014;2023-10-19T00:28:30;100160.55;;;-1.78;73.82
62864;BME280;48954;59.950;11.014;2023-10-19T00:30:59;100163.51;;;-1.81;73.83
62864;BME280;48954;59.950;11.014;2023-10-19T00:33:27;100167.07;;;-1.81;74.07
62864;BME280;48954;59.950;11.014;2023-10-19T00:35:55;100166.11;;;-1.84;74.05
62864;BME280;48954;59.950;11.014;2023-10-19T00:38:37;100169.51;;;-1.83;74.20
62864;BME280;48954;59.950;11.014;2023-10-19T00:41:07;100166.21;;;-1.82;74.13
62864;BME280;48954;59.950;11.014;2023-10-19T00:43:41;100173.16;;;-1.82;74.27
62864;BME280;48954;59.950;11.014;2023-10-19T00:46:15;100172.30;;;-1.81;74.33
62864;BME280;48954;59.950;11.014;2023-10-19T00:48:55;100173.77;;;-1.80;74.52
62864;BME280;48954;59.950;11.014;2023-10-19T00:51:23;100173.21;;;-1.79;74.39
62864;BME280;48954;59.950;11.014;2023-10-19T00:53:52;100171.92;;;-1.79;74.61
62864;BME280;48954;59.950;11.014;2023-10-19T00:56:35;100171.88;;;-1.80;74.58
62864;BME280;48954;59.950;11.014;2023-10-19T00:59:03;100173.33;;;-1.78;74.48
62864;BME280;48954;59.950;11.014;2023-10-19T01:01:33;100172.85;;;-1.82;74.59
62864;BME280;48954;59.950;11.014;2023-10-19T01:04:02;100181.30;;;-1.80;74.74
62864;BME280;48954;59.950;11.014;2023-10-19T01:06:29;100177.69;;;-1.80;74.72
62864;BME280;48954;59.950;11.014;2023-10-19T01:09:03;100177.15;;;-1.82;74.74
62864;BME280;48954;59.950;11.014;2023-10-19T01:11:31;100181.41;;;-1.81;74.60
62864;BME280;48954;59.950;11.014;2023-10-19T01:14:21;100176.39;;;-1.81;74.80
62864;BME280;48954;59.950;11.014;2023-10-19T01:16:50;100176.66;;;-1.81;74.97
62864;BME280;48954;59.950;11.014;2023-10-19T01:19:16;100178.55;;;-1.80;74.91
62864;BME280;48954;59.950;11.014;2023-10-19T01:21:42;100177.77;;;-1.78;75.08
62864;BME280;48954;59.950;11.014;2023-10-19T01:24:11;100174.73;;;-1.78;74.99
62864;BME280;48954;59.950;11.014;2023-10-19T01:26:37;100176.41;;;-1.75;74.91
62864;BME280;48954;59.950;11.014;2023-10-19T01:29:07;100177.01;;;-1.76;75.12
62864;BME280;48954;59.950;11.014;2023-10-19T01:31:35;100179.65;;;-1.75;75.06
62864;BME280;48954;59.950;11.014;2023-10-19T01:34:06;100179.05;;;-1.75;74.92
62864;BME280;48954;59.950;11.014;2023-10-19T01:36:33;100186.16;;;-1.77;74.84
62864;BME280;48954;59.950;11.014;2023-10-19T01:39:14;100187.67;;;-1.77;74.86
62864;BME280;48954;59.950;11.014;2023-10-19T01:41:40;100187.73;;;-1.79;74.85
62864;BME280;48954;59.950;11.014;2023-10-19T01:44:08;100185.66;;;-1.80;75.06
62864;BME280;48954;59.950;11.014;2023-10-19T01:46:35;100178.23;;;-1.80;74.89
62864;BME280;48954;59.950;11.014;2023-10-19T01:49:05;100173.54;;;-1.82;74.91
62864;BME280;48954;59.950;11.014;2023-10-19T01:51:35;100171.05;;;-1.80;74.90
62864;BME280;48954;59.950;11.014;2023-10-19T01:54:01;100172.52;;;-1.81;75.01
62864;BME280;48954;59.950;11.014;2023-10-19T01:56:32;100165.39;;;-1.83;75.02
62864;BME280;48954;59.950;11.014;2023-10-19T01:59:00;100170.03;;;-1.82;74.96
62864;BME280;48954;59.950;11.014;2023-10-19T02:01:31;100170.30;;;-1.82;75.12
62864;BME280;48954;59.950;11.014;2023-10-19T02:04:00;100163.40;;;-1.85;75.20
62864;BME280;48954;59.950;11.014;2023-10-19T02:06:39;100173.05;;;-1.81;75.19
62864;BME280;48954;59.950;11.014;2023-10-19T02:09:07;100178.45;;;-1.81;75.40
62864;BME280;48954;59.950;11.014;2023-10-19T02:11:41;100176.61;;;-1.82;75.36
62864;BME280;48954;59.950;11.014;2023-10-19T02:14:22;100172.79;;;-1.82;75.40
62864;BME280;48954;59.950;11.014;2023-10-19T02:16:57;100170.65;;;-1.83;75.05
62864;BME280;48954;59.950;11.014;2023-10-19T02:19:24;100169.18;;;-1.84;75.00
62864;BME280;48954;59.950;11.014;2023-10-19T02:24:38;100171.55;;;-1.86;75.06
62864;BME280;48954;59.950;11.014;2023-10-19T02:27:05;100164.59;;;-1.87;75.15
62864;BME280;48954;59.950;11.014;2023-10-19T02:29:31;100164.63;;;-1.90;74.88
62864;BME280;48954;59.950;11.014;2023-10-19T02:31:58;100164.36;;;-1.91;74.92
62864;BME280;48954;59.950;11.014;2023-10-19T02:34:26;100160.36;;;-1.94;75.02
62864;BME280;48954;59.950;11.014;2023-10-19T02:36:54;100160.59;;;-1.95;74.78
62864;BME280;48954;59.950;11.014;2023-10-19T02:39:23;100161.51;;;-1.98;74.74
62864;BME280;48954;59.950;11.014;2023-10-19T02:41:54;100161.11;;;-2.01;74.71
62864;BME280;48954;59.950;11.014;2023-10-19T02:44:27;100158.40;;;-2.06;74.67
62864;BME280;48954;59.950;11.014;2023-10-19T02:46:55;100159.86;;;-2.09;74.65
62864;BME280;48954;59.950;11.014;2023-10-19T02:49:24;100157.15;;;-2.13;74.63
62864;BME280;48954;59.950;11.014;2023-10-19T02:51:53;100157.61;;;-2.19;74.29
62864;BME280;48954;59.950;11.014;2023-10-19T02:54:24;100158.42;;;-2.23;74.49
62864;BME280;48954;59.950;11.014;2023-10-19T02:56:54;100157.00;;;-2.27;74.45
62864;BME280;48954;59.950;11.014;2023-10-19T02:59:23;100161.73;;;-2.31;74.51
62864;BME280;48954;59.950;11.014;2023-10-19T03:01:51;100150.85;;;-2.35;74.41
62864;BME280;48954;59.950;11.014;2023-10-19T03:04:18;100155.20;;;-2.36;74.71
62864;BME280;48954;59.950;11.014;2023-10-19T03:06:44;100154.38;;;-2.39;74.48
62864;BME280;48954;59.950;11.014;2023-10-19T03:09:11;100163.16;;;-2.39;74.70
62864;BME280;48954;59.950;11.014;2023-10-19T03:11:41;100156.53;;;-2.40;75.04
62864;BME280;48954;59.950;11.014;2023-10-19T03:14:11;100153.30;;;-2.40;75.21
62864;BME280;48954;59.950;11.014;2023-10-19T03:16:39;100149.97;;;-2.37;75.28
62864;BME280;48954;59.950;11.014;2023-10-19T03:19:11;100148.30;;;-2.37;75.47
62864;BME280;48954;59.950;11.014;2023-10-19T03:21:37;100149.06;;;-2.33;75.68
62864;BME280;48954;59.950;11.014;2023-10-19T03:24:04;100148.10;;;-2.31;75.30
62864;BME280;48954;59.950;11.014;2023-10-19T03:26:36;100144.92;;;-2.29;75.46
62864;BME280;48954;59.950;11.014;2023-10-19T03:29:04;100145.09;;;-2.27;75.50
62864;BME280;48954;59.950;11.014;2023-10-19T03:31:31;100147.04;;;-2.26;75.42
62864;BME280;48954;59.950;11.014;2023-10-19T03:33:59;100151.31;;;-2.24;75.50
62864;BME280;48954;59.950;11.014;2023-10-19T03:36:26;100148.23;;;-2.24;75.66
62864;BME280;48954;59.950;11.014;2023-10-19T03:38:53;100147.11;;;-2.23;75.47
62864;BME280;48954;59.950;11.014;2023-10-19T03:41:22;100145.16;;;-2.24;75.57
62864;BME280;48954;59.950;11.014;2023-10-19T03:43:49;100149.96;;;-2.24;75.44
62864;BME280;48954;59.950;11.014;2023-10-19T03:46:15;100148.61;;;-2.24;75.40
62864;BME280;48954;59.950;11.014;2023-10-19T03:48:42;100148.08;;;-2.24;75.58
62864;BME280;48954;59.950;11.014;2023-10-19T03:51:12;100149.90;;;-2.25;75.69
62864;BME280;48954;59.950;11.014;2023-10-19T03:53:40;100146.77;;;-2.25;75.36
62864;BME280;48954;59.950;11.014;2023-10-19T03:56:06;100137.29;;;-2.26;75.36
62864;BME280;48954;59.950;11.014;2023-10-19T03:58:34;100135.71;;;-2.28;75.53
62864;BME280;48954;59.950;11.014;2023-10-19T04:01:01;100137.48;;;-2.29;75.34
62864;BME280;48954;59.950;11.014;2023-10-19T04:03:28;100139.52;;;-2.30;75.41
62864;BME280;48954;59.950;11.014;2023-10-19T04:05:55;100133.23;;;-2.31;75.59
62864;BME280;48954;59.950;11.014;2023-10-19T04:08:22;100137.73;;;-2.32;75.49
62864;BME280;48954;59.950;11.014;2023-10-19T04:10:49;100140.28;;;-2.33;75.36
62864;BME280;48954;59.950;11.014;2023-10-19T04:13:17;100142.59;;;-2.34;75.57
62864;BME280;48954;59.950;11.014;2023-10-19T04:15:58;100138.03;;;-2.34;75.53
62864;BME280;48954;59.950;11.014;2023-10-19T04:18:25;100135.70;;;-2.36;75.70
62864;BME280;48954;59.950;11.014;2023-10-19T04:20:51;100135.60;;;-2.35;75.57
62864;BME280;48954;59.950;11.014;2023-10-19T04:23:24;100135.43;;;-2.34;75.75
62864;BME280;48954;59.950;11.014;2023-10-19T04:25:51;100128.92;;;-2.34;75.66
62864;BME280;48954;59.950;11.014;2023-10-19T04:28:17;100132.36;;;-2.33;75.79
62864;BME280;48954;59.950;11.014;2023-10-19T04:30:45;100131.70;;;-2.33;75.83
62864;BME280;48954;59.950;11.014;2023-10-19T04:33:11;100129.77;;;-2.31;75.79
62864;BME280;48954;59.950;11.014;2023-10-19T04:35:38;100128.91;;;-2.30;75.92
62864;BME280;48954;59.950;11.014;2023-10-19T04:38:05;100134.58;;;-2.28;76.01
62864;BME280;48954;59.950;11.014;2023-10-19T04:40:31;100135.52;;;-2.26;75.99
62864;BME280;48954;59.950;11.014;2023-10-19T04:43:11;100139.23;;;-2.24;75.99
62864;BME280;48954;59.950;11.014;2023-10-19T04:45:41;100134.45;;;-2.24;75.93
62864;BME280;48954;59.950;11.014;2023-10-19T04:48:12;100138.16;;;-2.23;75.81
62864;BME280;48954;59.950;11.014;2023-10-19T04:50:43;100139.08;;;-2.23;75.76
62864;BME280;48954;59.950;11.014;2023-10-19T04:53:13;100139.13;;;-2.23;75.76
62864;BME280;48954;59.950;11.014;2023-10-19T04:55:40;100136.76;;;-2.23;75.79
62864;BME280;48954;59.950;11.014;2023-10-19T04:58:17;100138.33;;;-2.23;75.75
62864;BME280;48954;59.950;11.014;2023-10-19T05:00:51;100136.27;;;-2.24;76.00
62864;BME280;48954;59.950;11.014;2023-10-19T05:03:31;100128.23;;;-2.30;75.61
62864;BME280;48954;59.950;11.014;2023-10-19T05:06:00;100135.02;;;-2.26;75.77
62864;BME280;48954;59.950;11.014;2023-10-19T05:08:27;100139.92;;;-2.26;75.63
62864;BME280;48954;59.950;11.014;2023-10-19T05:11:08;100140.25;;;-2.27;75.98
62864;BME280;48954;59.950;11.014;2023-10-19T05:13:51;100135.88;;;-2.28;75.54
62864;BME280;48954;59.950;11.014;2023-10-19T05:16:18;100134.41;;;-2.28;75.49
62864;BME280;48954;59.950;11.014;2023-10-19T05:18:48;100138.55;;;-2.31;75.61
62864;BME280;48954;59.950;11.014;2023-10-19T05:21:21;100134.47;;;-2.35;75.37
62864;BME280;48954;59.950;11.014;2023-10-19T05:23:52;100134.52;;;-2.37;75.39
62864;BME280;48954;59.950;11.014;2023-10-19T05:26:33;100129.31;;;-2.41;75.29
62864;BME280;48954;59.950;11.014;2023-10-19T05:29:24;100135.92;;;-2.44;75.34
62864;BME280;48954;59.950;11.014;2023-10-19T05:31:53;100133.52;;;-2.48;75.46
62864;BME280;48954;59.950;11.014;2023-10-19T05:34:33;100133.16;;;-2.52;75.41
62864;BME280;48954;59.950;11.014;2023-10-19T05:37:03;100133.54;;;-2.53;75.61
62864;BME280;48954;59.950;11.014;2023-10-19T05:39:39;100134.71;;;-2.55;75.50
62864;BME280;48954;59.950;11.014;2023-10-19T05:42:24;100133.19;;;-2.57;75.49
62864;BME280;48954;59.950;11.014;2023-10-19T05:45:05;100134.84;;;-2.59;75.19
62864;BME280;48954;59.950;11.014;2023-10-19T05:47:39;100134.81;;;-2.60;75.61
62864;BME280;48954;59.950;11.014;2023-10-19T05:50:18;100137.05;;;-2.62;75.25
62864;BME280;48954;59.950;11.014;2023-10-19T05:52:52;100138.88;;;-2.64;75.20
62864;BME280;48954;59.950;11.014;2023-10-19T05:55:28;100138.92;;;-2.66;75.52
62864;BME280;48954;59.950;11.014;2023-10-19T05:58:08;100138.10;;;-2.69;75.34
62864;BME280;48954;59.950;11.014;2023-10-19T06:00:35;100137.27;;;-2.71;75.68
62864;BME280;48954;59.950;11.014;2023-10-19T06:03:17;100138.63;;;-2.73;75.38
62864;BME280;48954;59.950;11.014;2023-10-19T06:05:48;100140.56;;;-2.74;75.76
62864;BME280;48954;59.950;11.014;2023-10-19T06:08:18;100140.93;;;-2.76;75.58
62864;BME280;48954;59.950;11.014;2023-10-19T06:11:00;100141.75;;;-2.74;75.92
62864;BME280;48954;59.950;11.014;2023-10-19T06:13:30;100143.90;;;-2.73;75.42
62864;BME280;48954;59.950;11.014;2023-10-19T06:16:11;100144.86;;;-2.73;75.72
62864;BME280;48954;59.950;11.014;2023-10-19T06:18:52;100148.20;;;-2.72;75.49
62864;BME280;48954;59.950;11.014;2023-10-19T06:21:33;100147.02;;;-2.71;75.51
62864;BME280;48954;59.950;11.014;2023-10-19T06:24:00;100146.86;;;-2.71;75.57
62864;BME280;48954;59.950;11.014;2023-10-19T06:26:30;100146.38;;;-2.71;75.54
62864;BME280;48954;59.950;11.014;2023-10-19T06:28:59;100146.21;;;-2.70;75.65
62864;BME280;48954;59.950;11.014;2023-10-19T06:31:29;100143.15;;;-2.70;75.42
62864;BME280;48954;59.950;11.014;2023-10-19T06:33:58;100141.48;;;-2.69;75.51
62864;BME280;48954;59.950;11.014;2023-10-19T06:36:25;100138.27;;;-2.68;75.57
62864;BME280;48954;59.950;11.014;2023-10-19T06:39:05;100137.14;;;-2.68;75.38
62864;BME280;48954;59.950;11.014;2023-10-19T06:41:34;100139.08;;;-2.67;75.51
62864;BME280;48954;59.950;11.014;2023-10-19T06:44:04;100140.15;;;-2.66;75.30
62864;BME280;48954;59.950;11.014;2023-10-19T06:46:32;100139.95;;;-2.65;75.50
62864;BME280;48954;59.950;11.014;2023-10-19T06:49:03;100142.87;;;-2.65;75.35
62864;BME280;48954;59.950;11.014;2023-10-19T06:51:44;100144.34;;;-2.62;75.42
62864;BME280;48954;59.950;11.014;2023-10-19T06:54:38;100147.30;;;-2.59;75.41
62864;BME280;48954;59.950;11.014;2023-10-19T06:57:05;100146.81;;;-2.58;75.33
62864;BME280;48954;59.950;11.014;2023-10-19T06:59:37;100150.64;;;-2.56;75.43
62864;BME280;48954;59.950;11.014;2023-10-19T07:02:15;100151.04;;;-2.53;75.28
62864;BME280;48954;59.950;11.014;2023-10-19T07:04:55;100152.95;;;-2.49;75.37
62864;BME280;48954;59.950;11.014;2023-10-19T07:07:21;100156.02;;;-2.45;75.64
62864;BME280;48954;59.950;11.014;2023-10-19T07:09:50;100160.45;;;-2.42;75.51
62864;BME280;48954;59.950;11.014;2023-10-19T07:12:18;100155.36;;;-2.38;75.26
62864;BME280;48954;59.950;11.014;2023-10-19T07:14:44;100158.76;;;-2.34;75.37
62864;BME280;48954;59.950;11.014;2023-10-19T07:17:11;100158.45;;;-2.28;75.38
62864;BME280;48954;59.950;11.014;2023-10-19T07:19:42;100158.09;;;-2.24;75.18
62864;BME280;48954;59.950;11.014;2023-10-19T07:22:13;100152.86;;;-2.20;75.36
62864;BME280;48954;59.950;11.014;2023-10-19T07:24:39;100159.58;;;-2.15;75.38
62864;BME280;48954;59.950;11.014;2023-10-19T07:27:11;100161.31;;;-2.10;75.06
62864;BME280;48954;59.950;11.014;2023-10-19T07:29:45;100164.11;;;-2.04;75.20
62864;BME280;48954;59.950;11.014;2023-10-19T07:32:17;100164.09;;;-1.98;75.26
62864;BME280;48954;59.950;11.014;2023-10-19T07:34:47;100165.92;;;-1.91;75.14
62864;BME280;48954;59.950;11.014;2023-10-19T07:37:16;100167.77;;;-1.84;75.23
62864;BME280;48954;59.950;11.014;2023-10-19T07:39:45;100170.26;;;-1.77;75.03
62864;BME280;48954;59.950;11.014;2023-10-19T07:42:14;100172.00;;;-1.69;74.75
62864;BME280;48954;59.950;11.014;2023-10-19T07:44:45;100169.47;;;-1.63;74.95
62864;BME280;48954;59.950;11.014;2023-10-19T07:47:14;100164.50;;;-1.55;74.88
62864;BME280;48954;59.950;11.014;2023-10-19T07:49:48;100169.85;;;-1.43;74.76
62864;BME280;48954;59.950;11.014;2023-10-19T07:52:18;100167.16;;;-1.34;74.73
62864;BME280;48954;59.950;11.014;2023-10-19T07:54:47;100162.23;;;-1.27;74.45
62864;BME280;48954;59.950;11.014;2023-10-19T07:57:14;100163.67;;;-1.17;74.22
62864;BME280;48954;59.950;11.014;2023-10-19T07:59:46;100167.94;;;-1.10;74.24
62864;BME280;48954;59.950;11.014;2023-10-19T08:02:14;100168.42;;;-1.02;74.06
62864;BME280;48954;59.950;11.014;2023-10-19T08:04:40;100173.40;;;-0.90;74.03
62864;BME280;48954;59.950;11.014;2023-10-19T08:07:10;100171.14;;;-0.70;73.95
62864;BME280;48954;59.950;11.014;2023-10-19T08:09:44;100169.70;;;-0.44;73.99
62864;BME280;48954;59.950;11.014;2023-10-19T08:12:18;100173.46;;;-0.15;73.52
62864;BME280;48954;59.950;11.014;2023-10-19T08:14:48;100169.69;;;0.20;73.43
62864;BME280;48954;59.950;11.014;2023-10-19T08:17:16;100169.26;;;0.58;72.99
62864;BME280;48954;59.950;11.014;2023-10-19T08:19:46;100169.95;;;0.98;72.64
62864;BME280;48954;59.950;11.014;2023-10-19T08:22:13;100169.86;;;1.34;71.79
62864;BME280;48954;59.950;11.014;2023-10-19T08:24:40;100162.27;;;1.66;71.28
62864;BME280;48954;59.950;11.014;2023-10-19T08:27:14;100164.52;;;1.90;71.05
62864;BME280;48954;59.950;11.014;2023-10-19T08:29:44;100165.33;;;2.07;70.55
62864;BME280;48954;59.950;11.014;2023-10-19T08:32:11;100161.30;;;2.22;70.08
62864;BME280;48954;59.950;11.014;2023-10-19T08:34:40;100162.88;;;2.40;69.60
62864;BME280;48954;59.950;11.014;2023-10-19T08:37:08;100158.02;;;2.58;68.74
62864;BME280;48954;59.950;11.014;2023-10-19T08:39:36;100152.77;;;2.58;67.96
62864;BME280;48954;59.950;11.014;2023-10-19T08:42:03;100147.66;;;2.58;67.74
62864;BME280;48954;59.950;11.014;2023-10-19T08:44:35;100151.44;;;2.78;67.56
62864;BME280;48954;59.950;11.014;2023-10-19T08:47:07;100144.77;;;2.71;67.44
62864;BME280;48954;59.950;11.014;2023-10-19T08:49:49;100147.29;;;2.54;66.89
62864;BME280;48954;59.950;11.014;2023-10-19T08:52:21;100148.00;;;2.40;66.97
62864;BME280;48954;59.950;11.014;2023-10-19T08:54:50;100147.06;;;2.31;67.23
62864;BME280;48954;59.950;11.014;2023-10-19T08:57:19;100143.21;;;2.27;66.92
62864;BME280;48954;59.950;11.014;2023-10-19T09:00:00;100144.80;;;2.26;66.74
62864;BME280;48954;59.950;11.014;2023-10-19T09:02:29;100144.70;;;2.22;66.86
62864;BME280;48954;59.950;11.014;2023-10-19T09:04:56;100147.24;;;2.29;66.85
62864;BME280;48954;59.950;11.014;2023-10-19T09:07:26;100143.24;;;2.51;66.84
62864;BME280;48954;59.950;11.014;2023-10-19T09:09:54;100144.08;;;2.64;66.62
62864;BME280;48954;59.950;11.014;2023-10-19T09:12:21;100145.55;;;2.67;66.52
62864;BME280;48954;59.950;11.014;2023-10-19T09:15:02;100144.30;;;2.67;65.95
62864;BME280;48954;59.950;11.014;2023-10-19T09:17:43;100142.05;;;2.59;65.64
62864;BME280;48954;59.950;11.014;2023-10-19T09:20:18;100143.73;;;2.56;65.40
62864;BME280;48954;59.950;11.014;2023-10-19T09:22:45;100145.76;;;2.58;65.01
62864;BME280;48954;59.950;11.014;2023-10-19T09:25:26;100145.27;;;2.50;65.21
62864;BME280;48954;59.950;11.014;2023-10-19T09:28:02;100148.71;;;2.49;64.72
62864;BME280;48954;59.950;11.014;2023-10-19T09:30:34;100152.42;;;2.42;64.96
62864;BME280;48954;59.950;11.014;2023-10-19T09:33:12;100148.20;;;2.46;64.76
62864;BME280;48954;59.950;11.014;2023-10-19T09:36:00;100148.44;;;2.50;64.87
62864;BME280;48954;59.950;11.014;2023-10-19T09:38:27;100151.75;;;2.66;64.62
62864;BME280;48954;59.950;11.014;2023-10-19T09:41:10;100150.84;;;2.78;63.93
62864;BME280;48954;59.950;11.014;2023-10-19T09:43:52;100142.83;;;2.74;63.63
62864;BME280;48954;59.950;11.014;2023-10-19T09:46:27;100143.58;;;2.78;63.67
62864;BME280;48954;59.950;11.014;2023-10-19T09:48:56;100142.59;;;3.09;63.22
62864;BME280;48954;59.950;11.014;2023-10-19T09:51:39;100140.67;;;3.51;62.57
62864;BME280;48954;59.950;11.014;2023-10-19T09:54:15;100138.34;;;3.67;62.03
62864;BME280;48954;59.950;11.014;2023-10-19T09:57:03;100127.79;;;3.99;62.03
62864;BME280;48954;59.950;11.014;2023-10-19T09:59:40;100126.70;;;4.33;61.09
62864;BME280;48954;59.950;11.014;2023-10-19T10:02:15;100129.16;;;4.34;60.71
62864;BME280;48954;59.950;11.014;2023-10-19T10:05:00;100133.58;;;4.10;60.93
62864;BME280;48954;59.950;11.014;2023-10-19T10:07:29;100132.92;;;4.20;60.63
62864;BME280;48954;59.950;11.014;2023-10-19T10:10:07;100134.02;;;4.64;59.90
62864;BME280;48954;59.950;11.014;2023-10-19T10:12:52;100131.73;;;4.53;59.78
62864;BME280;48954;59.950;11.014;2023-10-19T10:15:39;100134.08;;;4.53;59.68
62864;BME280;48954;59.950;11.014;2023-10-19T10:18:24;100126.80;;;4.87;59.31
62864;BME280;48954;59.950;11.014;2023-10-19T10:24:14;100121.78;;;4.70;58.51
62864;BME280;48954;59.950;11.014;2023-10-19T10:27:18;100118.26;;;4.41;58.53
62864;BME280;48954;59.950;11.014;2023-10-19T10:30:18;100114.59;;;4.10;58.89
62864;BME280;48954;59.950;11.014;2023-10-19T10:33:01;100117.63;;;3.96;58.76
62864;BME280;48954;59.950;11.014;2023-10-19T10:38:10;100113.05;;;4.15;58.66
62864;BME280;48954;59.950;11.014;2023-10-19T10:41:09;100108.84;;;4.23;58.26
62864;BME280;48954;59.950;11.014;2023-10-19T10:43:53;100113.34;;;4.00;58.43
62864;BME280;48954;59.950;11.014;2023-10-19T10:46:33;100112.81;;;3.77;58.24
62864;BME280;48954;59.950;11.014;2023-10-19T10:49:21;100110.15;;;3.67;58.34
62864;BME280;48954;59.950;11.014;2023-10-19T10:51:48;100102.10;;;3.57;58.42
62864;BME280;48954;59.950;11.014;2023-10-19T10:54:22;100107.56;;;3.52;58.38
62864;BME280;48954;59.950;11.014;2023-10-19T10:57:09;100106.23;;;3.52;58.14
62864;BME280;48954;59.950;11.014;2023-10-19T10:59:36;100105.28;;;3.45;58.10
62864;BME280;48954;59.950;11.014;2023-10-19T11:02:17;100100.09;;;3.40;58.21
62864;BME280;48954;59.950;11.014;2023-10-19T11:04:52;100104.64;;;3.39;58.20
62864;BME280;48954;59.950;11.014;2023-10-19T11:08:05;100105.60;;;3.35;58.12
62864;BME280;48954;59.950;11.014;2023-10-19T11:10:35;100097.08;;;3.26;57.74
62864;BME280;48954;59.950;11.014;2023-10-19T11:13:09;100096.72;;;3.22;58.03
62864;BME280;48954;59.950;11.014;2023-10-19T11:15:56;100103.73;;;3.19;57.89
62864;BME280;48954;59.950;11.014;2023-10-19T11:18:35;100102.63;;;3.14;57.83
62864;BME280;48954;59.950;11.014;2023-10-19T11:21:13;100098.95;;;3.08;57.72
62864;BME280;48954;59.950;11.014;2023-10-19T11:23:54;100101.65;;;3.09;57.66
62864;BME280;48954;59.950;11.014;2023-10-19T11:26:23;100100.91;;;3.10;57.66
62864;BME280;48954;59.950;11.014;2023-10-19T11:29:01;100099.86;;;3.09;57.27
62864;BME280;48954;59.950;11.014;2023-10-19T11:31:29;100096.94;;;3.11;57.18
62864;BME280;48954;59.950;11.014;2023-10-19T11:34:09;100089.62;;;3.21;56.96
62864;BME280;48954;59.950;11.014;2023-10-19T11:36:45;100092.30;;;3.20;56.87
62864;BME280;48954;59.950;11.014;2023-10-19T11:39:29;100088.96;;;3.18;56.90
62864;BME280;48954;59.950;11.014;2023-10-19T11:42:23;100088.52;;;3.19;56.86
62864;BME280;48954;59.950;11.014;2023-10-19T11:45:05;100088.66;;;3.14;56.68
62864;BME280;48954;59.950;11.014;2023-10-19T11:47:49;100087.20;;;3.16;56.71
62864;BME280;48954;59.950;11.014;2023-10-19T11:50:30;100077.35;;;3.20;56.66
62864;BME280;48954;59.950;11.014;2023-10-19T11:53:19;100083.88;;;3.16;56.55
62864;BME280;48954;59.950;11.014;2023-10-19T11:55:46;100085.37;;;3.13;56.59
62864;BME280;48954;59.950;11.014;2023-10-19T11:59:02;100079.87;;;3.11;56.44
62864;BME280;48954;59.950;11.014;2023-10-19T12:02:25;100069.00;;;3.13;56.37
62864;BME280;48954;59.950;11.014;2023-10-19T12:05:10;100062.58;;;3.13;56.26
62864;BME280;48954;59.950;11.014;2023-10-19T12:07:56;100061.44;;;3.11;56.04
62864;BME280;48954;59.950;11.014;2023-10-19T12:10:26;100058.19;;;3.08;56.16
62864;BME280;48954;59.950;11.014;2023-10-19T12:13:17;100055.59;;;3.08;56.36
62864;BME280;48954;59.950;11.014;2023-10-19T12:15:58;100056.63;;;3.07;56.14
62864;BME280;48954;59.950;11.014;2023-10-19T12:18:40;100059.98;;;3.11;56.34
62864;BME280;48954;59.950;11.014;2023-10-19T12:21:06;100058.54;;;3.15;56.21
62864;BME280;48954;59.950;11.014;2023-10-19T12:23:32;100057.75;;;3.16;56.08
62864;BME280;48954;59.950;11.014;2023-10-19T12:25:58;100056.04;;;3.17;55.73
62864;BME280;48954;59.950;11.014;2023-10-19T12:28:24;100050.73;;;3.19;55.49
62864;BME280;48954;59.950;11.014;2023-10-19T12:30:50;100051.73;;;3.27;55.77
62864;BME280;48954;59.950;11.014;2023-10-19T12:33:36;100049.02;;;3.28;55.69
62864;BME280;48954;59.950;11.014;2023-10-19T12:36:18;100047.52;;;3.30;55.53
62864;BME280;48954;59.950;11.014;2023-10-19T12:38:59;100044.33;;;3.32;55.39
62864;BME280;48954;59.950;11.014;2023-10-19T12:41:42;100048.66;;;3.27;55.51
62864;BME280;48954;59.950;11.014;2023-10-19T12:44:22;100051.96;;;3.31;55.14
62864;BME280;48954;59.950;11.014;2023-10-19T12:47:22;100050.77;;;3.39;54.96
62864;BME280;48954;59.950;11.014;2023-10-19T12:50:03;100047.74;;;3.30;54.98
62864;BME280;48954;59.950;11.014;2023-10-19T12:52:44;100044.95;;;3.17;54.97
62864;BME280;48954;59.950;11.014;2023-10-19T12:55:42;100042.36;;;3.06;54.98
62864;BME280;48954;59.950;11.014;2023-10-19T12:58:26;100042.67;;;3.04;55.13
62864;BME280;48954;59.950;11.014;2023-10-19T13:01:06;100039.48;;;3.06;54.93
62864;BME280;48954;59.950;11.014;2023-10-19T13:03:34;100035.88;;;3.09;55.10
62864;BME280;48954;59.950;11.014;2023-10-19T13:06:17;100032.38;;;3.18;55.07
62864;BME280;48954;59.950;11.014;2023-10-19T13:08:59;100030.13;;;3.25;54.84
62864;BME280;48954;59.950;11.014;2023-10-19T13:11:44;100028.45;;;3.29;54.80
62864;BME280;48954;59.950;11.014;2023-10-19T13:14:26;100027.60;;;3.34;54.36
62864;BME280;48954;59.950;11.014;2023-10-19T13:17:06;100022.75;;;3.39;54.50
62864;BME280;48954;59.950;11.014;2023-10-19T13:19:49;100022.83;;;3.46;54.38
62864;BME280;48954;59.950;11.014;2023-10-19T13:22:29;100016.77;;;3.51;54.07
62864;BME280;48954;59.950;11.014;2023-10-19T13:25:12;100017.25;;;3.59;53.71